KAZO/AZO METAR and TAF weather

Enter ICAO airport designator
Station Type Date Time Source
KAZO METAR 2018/01/19 16:53 UTC NOAA

KAZO 191653Z AUTO 21010G18KT 10SM CLR A2991 RMK AO2 SLPNO $


Station Type Date Time Source
KAZO Decoded METAR 2018/01/19 16:53 UTC NOAA

KALAMAZOO/BATTLE CREEK AIRPORT, MI, United States (KAZO) 42-14N 085-33W 272M
Jan 19, 2018 - 11:53 AM EST / 2018.01.19 1653 UTC
Wind: from the SSW (210 degrees) at 12 MPH (10 KT) gusting to 21 MPH (18 KT):0
Visibility: 10 mile(s):0
Sky conditions: clear
Pressure (altimeter): 29.91 in. Hg (1012 hPa)
ob: KAZO 191653Z AUTO 21010G18KT 10SM CLR A2991 RMK AO2 SLPNO
cycle: 17

Station Type Date Time Source
KAZO TAF 2018/01/19 18:24 UTC NOAA

TAF KAZO 191721Z 1918/2018 21010G18KT P6SM BKN250
FM192300 21012KT P6SM FEW250 WS020/24040KT
FM201000 22010KT P6SM OVC025
FM201400 22010KT 4SM BR OVC005


Example: see airport list